ฮานอย, Viet Nam

01:49 PM ICT วัน มกราคม 17, 2017 (GMT +0700)
Doi Can Street | | Change Station

Elev 46 ft 21.04 °N, 105.81 °E | Updated 7 minutes ago

มีเมฆคลุมเป็นส่วนใหญ่
มีเมฆคลุมเป็นส่วนใหญ่
66.0 ฟาเรนไฮน์
Feels Like 66.0 ฟาเรนไฮน์
N
0.1
ลม ความผันแปร ลม from ทางทิศใต้และทิศตะวันออกเฉียงใต้
Gusts 1.1 mph

วันนี้
High -- | Low -- ฟาเรนไฮน์
--% Chance of Precip.
Yesterday
High -- | Low -- ฟาเรนไฮน์
Precip. -- นิ้ว
ความดัน 30.09 นิ้ว
ทัศนวิสัย 6.2 ไมล์
เมฆ มีเมฆคลุมเป็นส่วนใหญ่ 2500 ft
อุณหภูมิที่อากาศอาจจับตัวเป็นหยาดน้ำค้าง 60 ฟาเรนไฮน์
ความชื้น 81%
Rainfall 0.03 นิ้ว
Snow Depth Not available.
6:35 AM 5:36 PM
ข้างแรม, 75% visible
METAR VVNB 170630Z 04007KT 9999 BKN025 17/14 Q1019 NOSIG
ความดัน 30.09 นิ้ว
ทัศนวิสัย 6.2 ไมล์
เมฆ มีเมฆคลุมเป็นส่วนใหญ่ 2500 ft
อุณหภูมิที่อากาศอาจจับตัวเป็นหยาดน้ำค้าง 60 ฟาเรนไฮน์
ความชื้น 81%
Rainfall 0.03 นิ้ว
Snow Depth Not available.
6:35 AM 5:36 PM
ข้างแรม, 75% visible
METAR VVNB 170630Z 04007KT 9999 BKN025 17/14 Q1019 NOSIG

Get Your Daily Forecast Email!

Thanks for signing up!

Be on the lookout for a verification email in your inbox.

You'll start receiving the daily forecast at 8 AM.

×

10-Day Weather Forecast

No radar image for this location.
×

Almanac

ดาราศาสตร์

Jan. 17, 2017 Rise Set
Actual Time
Civil Twilight
Nautical Twilight
Astronomical Twilight
Moon
Length Of Visible Light
ความยาวของวัน
Tomorrow will be .
, % of the Moon is Illuminated

Today's Extremes

Country Highs Country Lows

Community

WunderPhotos

Upload Photos

1,962,540 photos uploaded!

WunderBlog® & News

Nearby

Air Quality

  Air Quality AQ Index Pollutant
Not available.

Snow Depth

Station Depth Elevation

Earthquake Activity

City Distance Mag. Time & Date
Minimum magnitude displayed is 2.5.

Coastal Water Temperatures

สถานที่ อุณหภูมิ

Stations

Nearby Weather Stations

Station Location Temp ลมหนาว อุณหภูมิที่อากาศอาจจับตัวเป็นหยาดน้ำค้าง ความชื้น ลม Precip. Elev ปรับปรุงล่าสุด Type